createdAt,value
2019-05-19T00:00:20.140Z,17.15
2019-05-19T00:01:31.345Z,16.27
2019-05-19T00:02:40.713Z,16.60
2019-05-19T00:03:47.447Z,14.13
2019-05-19T00:04:52.909Z,15.60
2019-05-19T00:05:57.814Z,15.38
2019-05-19T00:07:05.832Z,16.20
2019-05-19T00:08:10.931Z,16.15
2019-05-19T00:09:16.780Z,15.48
2019-05-19T00:10:21.658Z,17.02
2019-05-19T00:11:27.591Z,15.25
2019-05-19T00:12:32.461Z,17.45
2019-05-19T00:13:37.926Z,18.32
2019-05-19T00:14:43.763Z,17.50
2019-05-19T00:15:49.135Z,17.82
2019-05-19T00:16:56.760Z,17.82
2019-05-19T00:18:02.151Z,18.15
2019-05-19T00:19:06.988Z,17.77
2019-05-19T00:20:12.594Z,18.80
2019-05-19T00:21:21.134Z,18.55
2019-05-19T00:22:26.831Z,20.90
2019-05-19T00:23:31.656Z,21.23
2019-05-19T00:24:38.351Z,21.27
2019-05-19T00:25:43.391Z,20.40
2019-05-19T00:26:48.732Z,20.45
2019-05-19T00:27:53.603Z,21.68
2019-05-19T00:28:58.993Z,19.98
2019-05-19T00:30:04.536Z,22.82
2019-05-19T00:31:10.268Z,25.17
2019-05-19T00:32:18.729Z,29.70
2019-05-19T00:33:25.204Z,31.30
2019-05-19T00:34:30.772Z,32.03
2019-05-19T00:35:38.369Z,29.70
2019-05-19T00:36:46.824Z,30.23
2019-05-19T00:37:54.855Z,32.93
2019-05-19T00:38:59.891Z,32.83
2019-05-19T00:40:08.108Z,31.70
2019-05-19T00:41:16.815Z,33.73
2019-05-19T00:42:23.580Z,32.67
2019-05-19T00:43:29.404Z,32.17
2019-05-19T00:44:35.680Z,30.60
2019-05-19T00:45:40.659Z,30.20
2019-05-19T00:46:46.022Z,30.57
2019-05-19T00:47:51.048Z,31.80
2019-05-19T00:48:56.587Z,28.45
2019-05-19T00:50:01.923Z,30.65
2019-05-19T00:51:08.757Z,29.87
2019-05-19T00:52:14.088Z,28.87
2019-05-19T00:53:19.693Z,29.48
2019-05-19T00:54:24.826Z,27.90
2019-05-19T00:55:30.848Z,28.17
2019-05-19T00:57:44.382Z,27.13
2019-05-19T00:58:51.001Z,29.57
2019-05-19T00:59:56.602Z,28.15
2019-05-19T01:01:03.259Z,30.10
2019-05-19T01:02:08.251Z,30.12
2019-05-19T01:03:20.152Z,31.25
2019-05-19T01:04:25.050Z,30.37
2019-05-19T01:05:33.536Z,30.57
2019-05-19T01:06:38.464Z,28.52
2019-05-19T01:07:48.290Z,27.85
2019-05-19T01:08:56.103Z,29.65
2019-05-19T01:10:01.453Z,27.98
2019-05-19T01:11:07.263Z,27.82
2019-05-19T01:12:13.161Z,26.40
2019-05-19T01:13:18.015Z,27.32
2019-05-19T01:14:23.623Z,24.50
2019-05-19T01:15:28.760Z,26.33
2019-05-19T01:16:38.273Z,25.70
2019-05-19T01:17:43.223Z,24.18
2019-05-19T01:18:48.906Z,25.80
2019-05-19T01:19:56.034Z,26.57
2019-05-19T01:21:04.416Z,21.73
2019-05-19T01:22:12.655Z,24.00
2019-05-19T01:23:19.740Z,26.25
2019-05-19T01:24:28.635Z,24.80
2019-05-19T01:25:35.562Z,25.55
2019-05-19T01:26:40.471Z,22.70
2019-05-19T01:27:45.858Z,24.80
2019-05-19T01:28:51.508Z,24.87
2019-05-19T01:29:58.203Z,27.48
2019-05-19T01:31:03.585Z,27.22
2019-05-19T01:32:09.243Z,26.20
2019-05-19T01:33:14.375Z,25.10
2019-05-19T01:34:20.167Z,26.10
2019-05-19T01:35:34.536Z,25.17
2019-05-19T01:36:39.964Z,25.08
2019-05-19T01:37:46.437Z,24.57
2019-05-19T01:38:52.051Z,22.45
2019-05-19T01:39:58.167Z,22.37
2019-05-19T01:41:06.770Z,21.25
2019-05-19T01:42:12.911Z,22.30
2019-05-19T01:43:18.286Z,21.87
2019-05-19T01:44:23.251Z,21.93
2019-05-19T01:45:35.036Z,18.77
2019-05-19T01:46:42.451Z,21.10
2019-05-19T01:47:51.168Z,21.50
2019-05-19T01:48:56.818Z,20.12
2019-05-19T01:50:16.888Z,20.62
2019-05-19T01:51:12.654Z,19.00
2019-05-19T01:52:21.231Z,18.50
2019-05-19T01:53:26.289Z,20.02
2019-05-19T01:54:31.651Z,19.10
2019-05-19T01:55:37.473Z,18.82
2019-05-19T01:56:42.793Z,19.10
2019-05-19T01:57:47.819Z,19.20
2019-05-19T01:58:53.399Z,19.12
2019-05-19T01:59:58.652Z,18.67
2019-05-19T02:01:04.118Z,20.50
2019-05-19T02:02:09.031Z,21.30
2019-05-19T02:03:14.409Z,21.00
2019-05-19T02:04:19.971Z,22.75
2019-05-19T02:05:25.802Z,22.95
2019-05-19T02:06:30.659Z,20.90
2019-05-19T02:07:36.065Z,20.75
2019-05-19T02:08:40.991Z,23.32
2019-05-19T02:09:49.201Z,23.25
2019-05-19T02:11:00.570Z,23.60
2019-05-19T02:12:02.291Z,23.50
2019-05-19T02:13:07.364Z,22.62
2019-05-19T02:14:13.887Z,23.77
2019-05-19T02:15:19.800Z,22.58
2019-05-19T02:16:25.239Z,22.70
2019-05-19T02:17:34.782Z,22.45
2019-05-19T02:18:42.003Z,22.27
2019-05-19T02:19:46.961Z,21.60
2019-05-19T02:20:54.256Z,19.52
2019-05-19T02:21:59.187Z,20.88
2019-05-19T02:23:07.418Z,20.48
2019-05-19T02:24:15.269Z,18.82
2019-05-19T02:25:20.730Z,17.52
2019-05-19T02:26:25.608Z,17.05
2019-05-19T02:27:31.101Z,17.52
2019-05-19T02:28:35.942Z,17.87
2019-05-19T02:29:41.333Z,16.67
2019-05-19T02:30:51.055Z,17.05
2019-05-19T02:31:58.732Z,16.80
2019-05-19T02:33:03.518Z,18.07
2019-05-19T02:34:11.999Z,16.70
2019-05-19T02:35:16.780Z,16.42
2019-05-19T02:36:23.264Z,17.48
2019-05-19T02:37:28.012Z,15.72
2019-05-19T02:38:33.382Z,17.23
2019-05-19T02:39:40.004Z,16.10
2019-05-19T02:40:49.237Z,16.52
2019-05-19T02:41:54.657Z,16.40
2019-05-19T02:43:01.882Z,16.70
2019-05-19T02:44:09.034Z,15.50
2019-05-19T02:45:14.615Z,16.40
2019-05-19T02:46:20.364Z,15.53
2019-05-19T02:47:27.161Z,15.90
2019-05-19T02:48:33.757Z,15.78
2019-05-19T02:49:40.115Z,15.18
2019-05-19T02:50:52.163Z,17.35
2019-05-19T02:51:55.030Z,17.80
2019-05-19T02:53:01.302Z,17.40
2019-05-19T02:54:08.005Z,18.70
2019-05-19T02:55:12.932Z,16.02
2019-05-19T02:56:19.575Z,18.00
2019-05-19T02:57:24.542Z,16.30
2019-05-19T02:58:30.127Z,16.15
2019-05-19T02:59:35.597Z,16.62
2019-05-19T03:00:42.571Z,17.73
2019-05-19T03:02:05.565Z,18.75
2019-05-19T03:03:11.034Z,16.50
2019-05-19T03:04:16.060Z,16.35
2019-05-19T03:05:21.365Z,16.95
2019-05-19T03:06:26.199Z,17.92
2019-05-19T03:07:34.626Z,16.10
2019-05-19T03:08:39.397Z,16.40
2019-05-19T03:09:44.772Z,14.70
2019-05-19T03:10:49.570Z,15.20
2019-05-19T03:11:54.988Z,15.90
2019-05-19T03:12:59.769Z,17.10
2019-05-19T03:14:05.104Z,15.25
2019-05-19T03:15:09.976Z,16.55
2019-05-19T03:16:15.459Z,15.63
2019-05-19T03:17:21.522Z,15.43
2019-05-19T03:18:26.895Z,16.50
2019-05-19T03:19:34.215Z,17.45
2019-05-19T03:20:39.702Z,17.73
2019-05-19T03:21:45.248Z,18.48
2019-05-19T03:22:50.884Z,16.27
2019-05-19T03:23:55.839Z,17.27
2019-05-19T03:25:01.215Z,16.10
2019-05-19T03:26:06.261Z,17.32
2019-05-19T03:27:11.632Z,16.65
2019-05-19T03:28:16.645Z,16.82
2019-05-19T03:29:26.021Z,17.35
2019-05-19T03:30:48.273Z,17.05
2019-05-19T03:32:15.125Z,17.30
2019-05-19T03:33:22.363Z,16.42
2019-05-19T03:34:27.962Z,15.53
2019-05-19T03:35:32.869Z,16.23
2019-05-19T03:36:38.228Z,17.12
2019-05-19T03:37:44.993Z,15.93
2019-05-19T03:38:50.328Z,16.97
2019-05-19T03:39:55.129Z,16.52
2019-05-19T03:41:00.496Z,17.57
2019-05-19T03:42:10.320Z,15.48
2019-05-19T03:43:15.130Z,16.60
2019-05-19T03:44:19.935Z,16.55
2019-05-19T03:45:25.330Z,16.60
2019-05-19T03:46:30.292Z,15.75
2019-05-19T03:47:35.668Z,15.63
2019-05-19T03:48:40.547Z,17.20
2019-05-19T03:49:45.900Z,17.37
2019-05-19T03:50:51.503Z,17.17
2019-05-19T03:51:56.979Z,16.45
2019-05-19T03:53:01.914Z,16.82
2019-05-19T03:54:07.275Z,15.68
2019-05-19T03:55:12.271Z,18.02
2019-05-19T03:57:59.794Z,16.60
2019-05-19T03:59:05.370Z,15.13
2019-05-19T04:00:11.450Z,15.98
2019-05-19T04:01:16.817Z,16.70
2019-05-19T04:02:21.742Z,18.50
2019-05-19T04:03:27.200Z,17.12
2019-05-19T04:04:32.100Z,18.15
2019-05-19T04:05:37.472Z,16.65
2019-05-19T04:06:42.413Z,17.70
2019-05-19T04:07:47.846Z,17.23
2019-05-19T04:08:52.733Z,18.70
2019-05-19T04:09:58.235Z,19.32
2019-05-19T04:11:03.148Z,18.32
2019-05-19T04:12:08.634Z,18.48
2019-05-19T04:13:13.509Z,19.12
2019-05-19T04:14:18.906Z,20.82
2019-05-19T04:15:23.807Z,18.77
2019-05-19T04:16:29.298Z,19.70
2019-05-19T04:17:34.280Z,18.23
2019-05-19T04:18:39.870Z,17.82
2019-05-19T04:19:46.363Z,18.02
2019-05-19T04:20:52.387Z,16.73
2019-05-19T04:21:57.240Z,15.93
2019-05-19T04:23:02.837Z,17.00
2019-05-19T04:24:07.726Z,17.50
2019-05-19T04:25:13.247Z,18.00
2019-05-19T04:26:18.097Z,18.32
2019-05-19T04:27:25.592Z,18.92
2019-05-19T04:28:30.653Z,18.75
2019-05-19T04:29:39.188Z,17.82
2019-05-19T04:30:42.628Z,18.85
2019-05-19T04:31:48.037Z,20.15
2019-05-19T04:32:53.040Z,18.27
2019-05-19T04:33:58.485Z,18.85
2019-05-19T04:35:03.515Z,20.00
2019-05-19T04:36:08.859Z,19.37
2019-05-19T04:37:13.794Z,18.20
2019-05-19T04:38:19.397Z,19.82
2019-05-19T04:39:24.337Z,17.70
2019-05-19T04:40:29.797Z,20.43
2019-05-19T04:41:35.161Z,19.40
2019-05-19T04:42:40.526Z,19.87
2019-05-19T04:43:45.401Z,20.20
2019-05-19T04:44:52.241Z,19.40
2019-05-19T04:45:57.111Z,19.60
2019-05-19T04:47:03.265Z,17.98
2019-05-19T04:48:09.597Z,18.35
2019-05-19T04:49:15.618Z,19.00
2019-05-19T04:50:20.562Z,18.60
2019-05-19T04:51:26.045Z,18.37
2019-05-19T04:52:35.798Z,19.45
2019-05-19T04:53:41.114Z,19.50
2019-05-19T04:54:45.942Z,19.52
2019-05-19T04:55:51.315Z,20.20
2019-05-19T04:56:56.163Z,21.02
2019-05-19T04:58:01.641Z,20.92
2019-05-19T04:59:06.513Z,21.77
2019-05-19T05:00:12.100Z,21.65
2019-05-19T05:01:16.898Z,21.15
2019-05-19T05:02:22.341Z,20.97
2019-05-19T05:03:27.454Z,20.15
2019-05-19T05:04:32.834Z,21.37
2019-05-19T05:05:40.233Z,19.73
2019-05-19T05:06:45.652Z,20.10
2019-05-19T05:07:50.795Z,21.02
2019-05-19T05:08:56.297Z,22.20
2019-05-19T05:10:01.459Z,21.02
2019-05-19T05:11:08.629Z,23.25
2019-05-19T05:12:14.167Z,22.58
2019-05-19T05:13:20.093Z,24.20
2019-05-19T05:14:25.197Z,23.02
2019-05-19T05:15:30.752Z,22.25
2019-05-19T05:16:35.572Z,23.70
2019-05-19T05:17:40.971Z,23.75
2019-05-19T05:18:47.879Z,22.95
2019-05-19T05:19:53.237Z,23.80
2019-05-19T05:20:59.646Z,24.15
2019-05-19T05:22:05.049Z,23.05
2019-05-19T05:23:10.011Z,25.52
2019-05-19T05:24:15.707Z,26.70
2019-05-19T05:25:20.833Z,25.52
2019-05-19T05:26:26.539Z,24.82
2019-05-19T05:27:31.587Z,27.10
2019-05-19T05:28:36.942Z,25.68
2019-05-19T05:29:44.508Z,24.95
2019-05-19T05:30:50.246Z,25.60
2019-05-19T05:31:55.473Z,27.42
2019-05-19T05:33:01.230Z,27.10
2019-05-19T05:34:06.839Z,26.80
2019-05-19T05:35:12.685Z,26.93
2019-05-19T05:36:18.692Z,29.67
2019-05-19T05:37:24.618Z,27.25
2019-05-19T05:38:29.921Z,29.27
2019-05-19T05:39:40.161Z,29.05
2019-05-19T05:40:45.340Z,28.80
2019-05-19T05:41:51.968Z,30.72
2019-05-19T05:42:57.221Z,29.60
2019-05-19T05:44:03.040Z,28.57
2019-05-19T05:45:08.332Z,30.65
2019-05-19T05:46:14.017Z,29.95
2019-05-19T05:47:19.169Z,31.25
2019-05-19T05:48:29.922Z,30.97
2019-05-19T05:49:35.061Z,30.62
2019-05-19T05:50:42.188Z,31.45
2019-05-19T05:51:50.265Z,31.82
2019-05-19T05:52:55.965Z,33.15
2019-05-19T05:54:01.407Z,31.87
2019-05-19T05:55:08.284Z,32.95
2019-05-19T05:56:13.863Z,32.53
2019-05-19T05:57:21.908Z,31.80
2019-05-19T05:58:27.456Z,31.57
2019-05-19T05:59:32.935Z,30.72
2019-05-19T06:00:38.083Z,31.27
2019-05-19T06:01:47.348Z,33.58
2019-05-19T06:02:56.421Z,35.48
2019-05-19T06:04:03.792Z,30.40
2019-05-19T06:05:09.166Z,33.85
2019-05-19T06:06:14.939Z,35.75
2019-05-19T06:07:20.335Z,32.95
2019-05-19T06:08:25.841Z,34.58
2019-05-19T06:09:31.858Z,35.45
2019-05-19T06:10:38.306Z,34.27
2019-05-19T06:11:43.227Z,34.20
2019-05-19T06:12:49.900Z,33.60
2019-05-19T06:13:57.527Z,35.08
2019-05-19T06:15:07.909Z,34.35
2019-05-19T06:16:15.830Z,35.17
2019-05-19T06:17:23.318Z,33.23
2019-05-19T06:18:28.281Z,36.35
2019-05-19T06:19:34.715Z,36.33
2019-05-19T06:20:39.903Z,35.13
2019-05-19T06:21:45.316Z,37.05
2019-05-19T06:22:56.657Z,36.95
2019-05-19T06:23:58.364Z,34.27
2019-05-19T06:25:03.312Z,36.05
2019-05-19T06:26:10.025Z,37.28
2019-05-19T06:27:14.893Z,36.25
2019-05-19T06:28:20.361Z,36.23
2019-05-19T06:29:28.128Z,36.35
2019-05-19T06:30:35.648Z,34.67
2019-05-19T06:31:40.609Z,35.00
2019-05-19T06:32:48.433Z,35.05
2019-05-19T06:33:53.828Z,34.18
2019-05-19T06:34:59.524Z,35.65
2019-05-19T06:36:11.265Z,35.55
2019-05-19T06:37:54.071Z,36.30
2019-05-19T06:39:02.388Z,37.95
2019-05-19T06:40:09.895Z,36.38
2019-05-19T06:41:17.174Z,36.45
2019-05-19T06:42:25.799Z,36.77
2019-05-19T06:43:32.449Z,37.67
2019-05-19T06:44:38.634Z,37.55
2019-05-19T06:45:50.120Z,37.65
2019-05-19T06:46:55.794Z,37.48
2019-05-19T06:48:02.691Z,38.48
2019-05-19T06:49:08.509Z,38.38
2019-05-19T06:50:14.312Z,39.80
2019-05-19T06:51:29.636Z,39.05
2019-05-19T06:52:37.642Z,41.20
2019-05-19T06:53:43.156Z,39.83
2019-05-19T06:54:52.925Z,40.00
2019-05-19T06:56:02.633Z,39.27
2019-05-19T06:57:07.750Z,40.08
2019-05-19T06:58:26.158Z,42.43
2019-05-19T06:59:33.439Z,41.55
2019-05-19T07:00:39.199Z,41.88
2019-05-19T07:01:51.322Z,44.93
2019-05-19T07:02:58.132Z,42.60
2019-05-19T07:04:03.459Z,43.83
2019-05-19T07:05:12.593Z,42.17
2019-05-19T07:06:20.210Z,43.38
2019-05-19T07:07:25.966Z,42.23
2019-05-19T07:08:31.034Z,43.87
2019-05-19T07:09:36.841Z,42.53
2019-05-19T07:10:42.335Z,41.88
2019-05-19T07:11:48.315Z,42.55
2019-05-19T07:12:53.423Z,42.70
2019-05-19T07:14:02.938Z,45.38
2019-05-19T07:15:08.858Z,45.83
2019-05-19T07:16:16.849Z,45.05
2019-05-19T07:17:22.268Z,44.20
2019-05-19T07:18:27.747Z,42.05
2019-05-19T07:19:32.792Z,41.58
2019-05-19T07:20:38.181Z,43.65
2019-05-19T07:21:43.018Z,44.25
2019-05-19T07:22:49.262Z,41.50
2019-05-19T07:23:54.142Z,41.23
2019-05-19T07:25:04.593Z,40.50
2019-05-19T07:26:09.499Z,42.10
2019-05-19T07:27:14.873Z,41.75
2019-05-19T07:28:21.193Z,42.00
2019-05-19T07:29:26.982Z,40.35
2019-05-19T07:30:33.672Z,42.20
2019-05-19T07:31:39.127Z,42.70
2019-05-19T07:32:46.961Z,42.17
2019-05-19T07:33:52.696Z,41.92
2019-05-19T07:34:57.923Z,43.78
2019-05-19T07:36:05.696Z,42.70
2019-05-19T07:37:12.250Z,40.28
2019-05-19T07:38:20.608Z,43.25
2019-05-19T07:39:25.469Z,42.25
2019-05-19T07:40:30.893Z,42.03
2019-05-19T07:41:36.390Z,41.10
2019-05-19T07:42:43.439Z,41.15
2019-05-19T07:43:56.241Z,40.38
2019-05-19T07:45:03.773Z,42.67
2019-05-19T07:46:08.889Z,40.20
2019-05-19T07:47:16.760Z,41.55
2019-05-19T07:48:23.022Z,41.42
2019-05-19T07:49:28.609Z,42.85
2019-05-19T07:50:37.511Z,41.90
2019-05-19T07:51:40.928Z,42.33
2019-05-19T07:52:45.952Z,41.92
2019-05-19T07:53:52.865Z,44.00
2019-05-19T07:54:59.835Z,43.05
2019-05-19T07:56:13.699Z,45.20
2019-05-19T07:57:21.049Z,43.40
2019-05-19T07:58:26.857Z,42.30
2019-05-19T07:59:34.898Z,40.50
2019-05-19T08:00:40.414Z,38.53
2019-05-19T08:01:47.180Z,39.45
2019-05-19T08:02:52.978Z,42.50
2019-05-19T08:03:57.847Z,39.67
2019-05-19T08:05:03.501Z,39.63
2019-05-19T08:06:08.980Z,38.80
2019-05-19T08:07:16.010Z,38.80
2019-05-19T08:08:24.255Z,40.38
2019-05-19T08:09:34.782Z,39.40
2019-05-19T08:10:42.879Z,39.80
2019-05-19T08:11:48.326Z,40.17
2019-05-19T08:12:55.508Z,38.08
2019-05-19T08:14:01.263Z,37.53
2019-05-19T08:15:07.640Z,36.65
2019-05-19T08:16:14.474Z,37.08
2019-05-19T08:17:25.764Z,38.10
2019-05-19T08:18:32.938Z,35.08
2019-05-19T08:19:38.091Z,38.42
2019-05-19T08:20:44.055Z,39.60
2019-05-19T08:21:49.317Z,39.45
2019-05-19T08:22:55.005Z,39.55
2019-05-19T08:24:01.381Z,43.80
2019-05-19T08:25:09.695Z,39.80
2019-05-19T08:26:20.998Z,40.00
2019-05-19T08:27:26.889Z,38.05
2019-05-19T08:28:36.257Z,38.75
2019-05-19T08:29:45.940Z,38.78
2019-05-19T08:30:51.304Z,36.28
2019-05-19T08:31:57.241Z,37.40
2019-05-19T08:33:02.281Z,36.95
2019-05-19T08:34:09.939Z,36.35
2019-05-19T08:35:15.466Z,37.93
2019-05-19T08:36:21.386Z,37.13
2019-05-19T08:37:29.888Z,35.88
2019-05-19T08:38:37.243Z,38.67
2019-05-19T08:39:42.395Z,36.10
2019-05-19T08:40:54.499Z,38.67
2019-05-19T08:41:59.352Z,35.60
2019-05-19T08:43:06.708Z,38.30
2019-05-19T08:44:16.660Z,36.40
2019-05-19T08:45:22.902Z,35.65
2019-05-19T08:46:28.621Z,33.95
2019-05-19T08:47:34.997Z,36.13
2019-05-19T08:48:40.146Z,32.93
2019-05-19T08:49:50.541Z,34.78
2019-05-19T08:50:57.138Z,34.40
2019-05-19T08:52:06.854Z,33.08
2019-05-19T08:53:14.994Z,36.13
2019-05-19T08:54:20.678Z,34.03
2019-05-19T08:55:32.653Z,32.35
2019-05-19T08:56:40.254Z,35.35
2019-05-19T08:57:48.707Z,34.13
2019-05-19T08:58:54.928Z,34.33
2019-05-19T09:00:04.467Z,30.23
2019-05-19T09:01:12.828Z,32.15
2019-05-19T09:02:21.257Z,34.58
2019-05-19T09:03:35.118Z,33.10
2019-05-19T09:04:44.661Z,38.50
2019-05-19T09:05:51.171Z,36.00
2019-05-19T09:07:00.397Z,32.58
2019-05-19T09:08:09.197Z,31.75
2019-05-19T09:09:21.840Z,29.20
2019-05-19T09:10:29.295Z,34.03
2019-05-19T09:11:42.507Z,32.65
2019-05-19T09:12:50.814Z,30.88
2019-05-19T09:13:57.400Z,32.17
2019-05-19T09:15:06.611Z,33.30
2019-05-19T09:16:14.758Z,30.60
2019-05-19T09:17:20.975Z,31.17
2019-05-19T09:18:30.038Z,31.20
2019-05-19T09:19:40.685Z,34.83
2019-05-19T09:21:05.248Z,28.77
2019-05-19T09:22:11.274Z,29.75
2019-05-19T09:23:16.964Z,30.40
2019-05-19T09:24:30.604Z,28.52
2019-05-19T09:25:33.970Z,28.67
2019-05-19T09:26:42.774Z,27.50
2019-05-19T09:27:48.340Z,28.85
2019-05-19T09:28:53.863Z,29.15
2019-05-19T09:29:59.258Z,29.32
2019-05-19T09:31:04.861Z,30.52
2019-05-19T09:32:10.083Z,29.23
2019-05-19T09:33:19.963Z,30.35
2019-05-19T09:34:46.666Z,29.77
2019-05-19T09:35:53.647Z,26.05
2019-05-19T09:36:58.474Z,29.90
2019-05-19T09:38:04.552Z,28.77
2019-05-19T09:39:09.914Z,30.97
2019-05-19T09:40:17.111Z,31.27
2019-05-19T09:41:23.028Z,29.48
2019-05-19T09:42:29.396Z,31.68
2019-05-19T09:43:35.706Z,29.48
2019-05-19T09:44:44.082Z,30.05
2019-05-19T09:45:53.901Z,31.23
2019-05-19T09:47:00.695Z,29.40
2019-05-19T09:48:07.248Z,32.83
2019-05-19T09:49:29.831Z,27.93
2019-05-19T09:50:36.897Z,27.50
2019-05-19T09:51:46.778Z,26.82
2019-05-19T09:52:52.358Z,28.70
2019-05-19T09:54:01.414Z,29.63
2019-05-19T09:55:07.398Z,32.25
2019-05-19T09:56:16.524Z,32.80
2019-05-19T09:57:23.211Z,29.35
2019-05-19T09:58:29.405Z,28.23
2019-05-19T09:59:37.456Z,28.92
2019-05-19T10:00:46.941Z,27.40
2019-05-19T10:01:55.735Z,28.52
2019-05-19T10:03:01.393Z,28.32
2019-05-19T10:04:09.324Z,27.45
2019-05-19T10:05:18.251Z,30.30
2019-05-19T10:06:24.977Z,28.65
2019-05-19T10:07:36.701Z,27.62
2019-05-19T10:08:53.169Z,29.05
2019-05-19T10:10:06.972Z,28.75
2019-05-19T10:12:00.265Z,28.42
2019-05-19T10:13:06.890Z,27.45
2019-05-19T10:14:12.755Z,30.75
2019-05-19T10:15:20.785Z,31.80
2019-05-19T10:16:27.865Z,30.92
2019-05-19T10:17:35.259Z,27.80
2019-05-19T10:18:40.206Z,29.25
2019-05-19T10:19:45.564Z,24.47
2019-05-19T10:20:50.586Z,25.17
2019-05-19T10:21:57.883Z,23.95
2019-05-19T10:23:02.933Z,26.30
2019-05-19T10:24:08.877Z,24.85
2019-05-19T10:25:22.380Z,23.77
2019-05-19T10:26:23.578Z,25.50
2019-05-19T10:27:31.264Z,23.18
2019-05-19T10:28:44.966Z,23.35
2019-05-19T10:29:51.388Z,27.15
2019-05-19T10:30:56.810Z,25.43
2019-05-19T10:32:03.289Z,25.25
2019-05-19T10:33:08.926Z,27.75
2019-05-19T10:34:14.446Z,24.25
2019-05-19T10:35:20.078Z,23.42
2019-05-19T10:36:27.825Z,21.35
2019-05-19T10:37:35.091Z,22.77
2019-05-19T10:38:43.839Z,23.67
2019-05-19T10:39:51.091Z,23.70
2019-05-19T10:40:56.158Z,25.80
2019-05-19T10:42:03.124Z,22.82
2019-05-19T10:43:12.817Z,23.52
2019-05-19T10:44:19.770Z,22.82
2019-05-19T10:45:25.262Z,22.07
2019-05-19T10:46:33.659Z,23.47
2019-05-19T10:47:38.687Z,23.07
2019-05-19T10:48:47.404Z,25.82
2019-05-19T10:49:53.047Z,24.67
2019-05-19T10:51:04.312Z,24.63
2019-05-19T10:52:14.013Z,24.72
2019-05-19T10:53:22.723Z,25.17
2019-05-19T10:54:28.087Z,23.35
2019-05-19T10:55:37.172Z,23.77
2019-05-19T10:56:43.254Z,22.32
2019-05-19T10:57:49.348Z,23.90
2019-05-19T10:58:57.997Z,22.85
2019-05-19T11:00:05.335Z,25.32
2019-05-19T11:01:13.887Z,22.93
2019-05-19T11:03:07.614Z,25.02
2019-05-19T11:04:14.605Z,24.05
2019-05-19T11:05:21.669Z,22.37
2019-05-19T11:06:28.412Z,24.70
2019-05-19T11:07:35.294Z,25.72
2019-05-19T11:08:41.922Z,23.87
2019-05-19T11:09:50.081Z,23.98
2019-05-19T11:10:59.169Z,22.75
2019-05-19T11:12:04.959Z,24.20
2019-05-19T11:13:11.903Z,25.15
2019-05-19T11:14:20.134Z,23.07
2019-05-19T11:15:29.242Z,26.23
2019-05-19T11:16:35.788Z,23.57
2019-05-19T11:17:42.298Z,24.63
2019-05-19T11:18:52.591Z,22.00
2019-05-19T11:20:00.876Z,21.62
2019-05-19T11:21:08.974Z,29.98
2019-05-19T11:22:16.964Z,29.30
2019-05-19T11:23:24.808Z,24.72
2019-05-19T11:24:35.934Z,23.05
2019-05-19T11:25:51.446Z,22.93
2019-05-19T11:26:53.035Z,22.90
2019-05-19T11:28:04.088Z,23.95
2019-05-19T11:29:09.660Z,20.23
2019-05-19T11:30:14.820Z,23.60
2019-05-19T11:31:31.534Z,20.27
2019-05-19T11:32:37.162Z,21.30
2019-05-19T11:33:49.022Z,18.92
2019-05-19T11:34:57.247Z,18.37
2019-05-19T11:36:04.368Z,22.00
2019-05-19T11:37:14.824Z,20.75
2019-05-19T11:38:22.257Z,15.60
2019-05-19T11:39:27.347Z,13.85
2019-05-19T11:40:36.076Z,13.32
2019-05-19T11:41:41.146Z,14.63
2019-05-19T11:42:48.175Z,16.77
2019-05-19T11:44:06.786Z,17.82
2019-05-19T11:45:13.527Z,16.80
2019-05-19T11:46:18.920Z,19.00
2019-05-19T11:47:30.120Z,18.30
2019-05-19T11:48:36.709Z,15.45
2019-05-19T11:49:43.298Z,16.40
2019-05-19T11:50:57.096Z,16.75
2019-05-19T11:52:02.946Z,17.70
2019-05-19T11:53:10.125Z,16.62
2019-05-19T11:54:16.325Z,16.75
2019-05-19T11:55:21.292Z,13.70
2019-05-19T11:56:29.284Z,14.13
2019-05-19T11:57:37.400Z,13.83
2019-05-19T11:58:48.684Z,13.45
2019-05-19T11:59:55.422Z,12.65
2019-05-19T12:01:04.087Z,13.03
2019-05-19T12:02:18.269Z,13.50
2019-05-19T12:03:27.076Z,15.00
2019-05-19T12:04:34.434Z,15.20
2019-05-19T12:05:39.970Z,14.00
2019-05-19T12:06:51.036Z,15.28
2019-05-19T12:08:14.075Z,16.67
2019-05-19T12:09:22.732Z,15.60
2019-05-19T12:10:30.192Z,17.57
2019-05-19T12:11:38.372Z,16.10
2019-05-19T12:12:44.053Z,14.35
2019-05-19T12:13:52.202Z,18.92
2019-05-19T12:14:57.898Z,16.55
2019-05-19T12:16:03.036Z,15.83
2019-05-19T12:17:18.406Z,17.42
2019-05-19T12:18:23.674Z,18.20
2019-05-19T12:19:34.012Z,17.35
2019-05-19T12:20:41.266Z,25.45
2019-05-19T12:21:51.349Z,47.83
2019-05-19T12:22:59.673Z,27.90
2019-05-19T12:24:06.034Z,30.92
2019-05-19T12:25:13.652Z,25.77
2019-05-19T12:26:23.435Z,22.35
2019-05-19T12:27:27.391Z,16.10
2019-05-19T12:28:32.828Z,22.40
2019-05-19T12:29:58.722Z,19.40
2019-05-19T12:31:10.781Z,19.05
2019-05-19T12:32:20.275Z,18.30
2019-05-19T12:33:30.907Z,16.17
2019-05-19T12:34:40.925Z,14.80
2019-05-19T12:35:46.747Z,17.30
2019-05-19T12:37:00.284Z,17.98
2019-05-19T12:38:09.535Z,16.57
2019-05-19T12:39:18.428Z,16.23
2019-05-19T12:40:28.230Z,18.55
2019-05-19T12:41:37.740Z,19.37
2019-05-19T12:42:49.740Z,18.55
2019-05-19T12:43:55.207Z,22.95
2019-05-19T12:45:01.770Z,19.48
2019-05-19T12:46:16.914Z,31.02
2019-05-19T12:50:34.077Z,18.40
2019-05-19T12:51:45.993Z,19.70
2019-05-19T12:52:49.999Z,21.48
2019-05-19T12:53:56.217Z,21.35
2019-05-19T12:55:03.429Z,19.75
2019-05-19T12:56:09.099Z,20.85
2019-05-19T12:57:16.769Z,21.52
2019-05-19T12:58:22.510Z,22.70
2019-05-19T12:59:31.344Z,23.00
2019-05-19T13:00:43.717Z,21.37
2019-05-19T13:02:30.466Z,19.17
2019-05-19T13:03:39.849Z,22.48
2019-05-19T13:05:11.833Z,20.43
2019-05-19T13:06:25.238Z,18.98
2019-05-19T13:07:53.906Z,22.30
2019-05-19T13:09:05.059Z,16.52
2019-05-19T13:10:14.353Z,19.25
2019-05-19T13:11:26.894Z,18.10
2019-05-19T13:12:31.648Z,19.35
2019-05-19T13:13:43.246Z,19.60
2019-05-19T13:14:58.608Z,20.02
2019-05-19T13:16:23.403Z,19.48
2019-05-19T13:17:34.986Z,20.00
2019-05-19T13:18:45.100Z,21.12
2019-05-19T13:19:50.321Z,20.75
2019-05-19T13:20:58.356Z,16.30
2019-05-19T13:22:09.248Z,9.10
2019-05-19T13:23:22.170Z,6.65
2019-05-19T13:24:31.166Z,6.25
2019-05-19T13:25:43.037Z,7.25
2019-05-19T13:26:56.754Z,7.62
2019-05-19T13:28:04.301Z,5.58
2019-05-19T13:29:16.247Z,5.15
2019-05-19T13:30:34.826Z,4.65
2019-05-19T13:31:46.522Z,4.65
2019-05-19T13:32:53.287Z,4.33
2019-05-19T13:33:59.547Z,3.10
2019-05-19T13:35:09.309Z,3.30
2019-05-19T13:36:15.775Z,4.60
2019-05-19T13:37:25.940Z,4.05
2019-05-19T13:38:31.959Z,4.58
2019-05-19T13:39:38.130Z,3.35
2019-05-19T13:40:46.252Z,3.50
2019-05-19T13:41:52.035Z,3.22
2019-05-19T13:42:57.280Z,3.72
2019-05-19T13:44:07.551Z,3.65
2019-05-19T13:45:20.505Z,3.08
2019-05-19T13:46:28.258Z,2.55
2019-05-19T13:47:36.886Z,3.05
2019-05-19T13:48:52.552Z,3.20
2019-05-19T13:49:56.681Z,2.50
2019-05-19T13:51:02.308Z,3.10
2019-05-19T13:52:10.708Z,3.65
2019-05-19T13:53:16.431Z,3.37
2019-05-19T13:54:23.433Z,3.90
2019-05-19T13:55:32.108Z,3.30
2019-05-19T13:56:40.632Z,3.27
2019-05-19T13:57:47.006Z,4.45
2019-05-19T13:58:52.521Z,3.00
2019-05-19T14:00:19.992Z,3.40
2019-05-19T14:01:35.693Z,3.22
2019-05-19T14:02:42.188Z,3.72
2019-05-19T14:03:52.233Z,5.05
2019-05-19T14:05:24.816Z,4.22
2019-05-19T14:06:29.973Z,3.75
2019-05-19T14:07:37.045Z,4.70
2019-05-19T14:08:47.179Z,4.08
2019-05-19T14:09:55.666Z,4.35
2019-05-19T14:11:00.963Z,4.62
2019-05-19T14:12:08.844Z,4.62
2019-05-19T14:13:14.553Z,5.28
2019-05-19T14:14:25.471Z,3.60
2019-05-19T14:15:39.962Z,4.22
2019-05-19T14:16:46.334Z,5.00
2019-05-19T14:17:57.371Z,4.92
2019-05-19T14:21:18.903Z,4.50
2019-05-19T14:22:24.791Z,3.95
2019-05-19T14:23:40.623Z,4.15
2019-05-19T14:24:49.398Z,3.75
2019-05-19T14:25:54.964Z,3.22
2019-05-19T14:27:06.777Z,3.70
2019-05-19T14:28:18.368Z,4.50
2019-05-19T14:29:32.532Z,4.28
2019-05-19T14:30:45.411Z,3.95
2019-05-19T14:31:53.616Z,4.20
2019-05-19T14:34:06.333Z,4.28
2019-05-19T14:35:17.288Z,4.33
2019-05-19T14:36:27.854Z,4.70
2019-05-19T14:37:34.353Z,4.30
2019-05-19T14:39:05.339Z,4.35
2019-05-19T14:40:10.155Z,4.60
2019-05-19T14:41:32.706Z,5.08
2019-05-19T14:42:43.252Z,5.20